SBOSBO WAW / EPWA
Speedbird OnlineSpeedbird Online WAW / EPWA

Warsaw Chopin Airport
19:01 23.4°C

Location Warsaw, Poland
Latitude: 52.1656990051
Longitude: 20.967100143399996
Local Time 19:01 on 30 May 2024
UTC +2 hours (Europe/Warsaw)
Currency £1 equals PLN 5.04
METAR EPWA 301530Z 12010KT 090V150 9999 FEW040 SCT060CB 25/12 Q1005 TEMPO TSRA
TAF TAF EPWA 301430Z 3015/3115 10005KT CAVOK TEMPO 3015/3021 4500 SHRA SCT050CB PROB40 TEMPO 3015/3019 VRB18G28KT 2500 TSRA BKN040CB PROB40 TEMPO 3110/3115 4000 TSRA BKN050CB
Weather As Of 30 May 2024 18:18
Description Broken clouds
Wind 35 km/h from East (110°)
Cloud Cover 75%
Precipitation Rain: none, Snow: none
Sunrise 04:22
Sunset 20:44
NOTAM 35 active NOTAM
Rotations During the last 90 days there were
226 flights from LHR
1 flights from WAW
226 flights to LHR
1 flights to WAW
Lounges Executive Etiuda Lounge, Main Terminal
Fantazja Executive Lounge, Main Terminal
Preludium Lounge, Terminal A
Web Airport Website | Wikipedia
Codes IATA: WAW
ICAO: EPWA
Altitude 110 Meter / 362 Feet
Distance 1,429 KM / 888 Miles
from London.
Runways
RunwayLength (m)Surface
112800Concrete
153690Concrete
292800Concrete
333690Concrete
Radio
TypeDescriptionFrequency
APPWARSZAWA APP128.8
ATISATIS120.45
CLDCLNC DEL121.6
DIRWARSZAWA DIR129.375
GNDGND121.9
TWRTWR118.3
Live ATC



Support Speedbird Online

© 2017-2024 Speedbird Online